createdAt,value
2022-08-16T00:00:20.442Z,74.54
2022-08-16T00:01:10.639Z,74.34
2022-08-16T00:02:13.039Z,74.14
2022-08-16T00:03:13.272Z,74.44
2022-08-16T00:04:10.338Z,74.74
2022-08-16T00:05:09.572Z,74.84
2022-08-16T00:06:09.970Z,74.64
2022-08-16T00:07:09.579Z,74.74
2022-08-16T00:08:09.554Z,74.54
2022-08-16T00:09:10.880Z,74.94
2022-08-16T00:10:09.519Z,75.04
2022-08-16T00:11:15.220Z,74.94
2022-08-16T00:12:10.486Z,74.94
2022-08-16T00:13:09.500Z,75.24
2022-08-16T00:14:09.468Z,75.24
2022-08-16T00:15:11.505Z,75.04
2022-08-16T00:17:01.262Z,75.04
2022-08-16T00:17:18.248Z,75.14
2022-08-16T00:18:10.398Z,75.14
2022-08-16T00:19:09.401Z,75.14
2022-08-16T00:20:12.298Z,75.38
2022-08-16T00:21:09.348Z,75.38
2022-08-16T00:22:13.604Z,75.18
2022-08-16T00:23:10.413Z,74.68
2022-08-16T00:24:11.376Z,74.98
2022-08-16T00:25:09.307Z,75.38
2022-08-16T00:26:34.746Z,75.58
2022-08-16T00:27:10.299Z,75.18
2022-08-16T00:28:09.293Z,75.58
2022-08-16T00:29:09.268Z,75.58
2022-08-16T00:30:25.976Z,75.08
2022-08-16T00:31:10.224Z,75.38
2022-08-16T00:32:10.904Z,75.58
2022-08-16T00:33:09.207Z,76.08
2022-08-16T00:34:09.196Z,75.78
2022-08-16T00:35:14.948Z,75.98
2022-08-16T00:36:10.157Z,75.88
2022-08-16T00:37:09.136Z,75.98
2022-08-16T00:38:40.162Z,76.38
2022-08-16T00:39:10.116Z,76.28
2022-08-16T00:40:34.193Z,76.48
2022-08-16T00:41:10.095Z,76.38
2022-08-16T00:42:10.135Z,76.48
2022-08-16T00:43:12.037Z,76.18
2022-08-16T00:44:10.056Z,76.48
2022-08-16T00:45:09.506Z,76.48
2022-08-16T00:46:33.198Z,76.38
2022-08-16T00:47:10.015Z,76.48
2022-08-16T00:48:30.539Z,76.48
2022-08-16T00:49:17.531Z,76.58
2022-08-16T00:50:11.888Z,76.18
2022-08-16T00:51:08.968Z,76.68
2022-08-16T00:52:30.225Z,76.78
2022-08-16T00:53:09.965Z,76.68
2022-08-16T00:54:08.917Z,76.89
2022-08-16T00:55:08.904Z,76.78
2022-08-16T00:56:08.896Z,76.89
2022-08-16T00:57:09.893Z,76.78
2022-08-16T00:58:13.153Z,77.19
2022-08-16T00:59:09.883Z,76.98
2022-08-16T01:00:08.839Z,76.78
2022-08-16T01:01:08.898Z,77.02
2022-08-16T01:02:31.209Z,77.22
2022-08-16T01:03:12.675Z,77.09
2022-08-16T01:04:25.743Z,77.19
2022-08-16T01:05:11.487Z,77.28
2022-08-16T01:06:39.780Z,77.09
2022-08-16T01:07:09.765Z,77.09
2022-08-16T01:08:36.001Z,77.09
2022-08-16T01:09:09.743Z,77.19
2022-08-16T01:10:15.858Z,77.09
2022-08-16T01:11:09.705Z,77.09
2022-08-16T01:12:10.754Z,77.19
2022-08-16T01:13:08.671Z,77.09
2022-08-16T01:14:09.232Z,77.28
2022-08-16T01:15:08.664Z,77.19
2022-08-16T01:16:10.226Z,77.19
2022-08-16T01:17:08.634Z,77.19
2022-08-16T01:18:08.612Z,77.19
2022-08-16T01:19:09.593Z,77.39
2022-08-16T01:20:11.661Z,77.28
2022-08-16T01:21:09.566Z,77.09
2022-08-16T01:22:47.427Z,76.98
2022-08-16T01:23:09.544Z,77.09
2022-08-16T01:24:44.491Z,76.98
2022-08-16T01:25:09.543Z,77.09
2022-08-16T01:26:34.221Z,77.28
2022-08-16T01:27:09.483Z,77.28
2022-08-16T01:28:08.473Z,77.09
2022-08-16T01:29:10.015Z,77.09
2022-08-16T01:30:19.225Z,77.09
2022-08-16T01:31:09.452Z,77.09
2022-08-16T01:32:09.233Z,77.19
2022-08-16T01:33:14.344Z,77.09
2022-08-16T01:34:09.394Z,77.09
2022-08-16T01:35:09.384Z,77.19
2022-08-16T01:36:12.299Z,76.98
2022-08-16T01:37:08.353Z,77.28
2022-08-16T01:38:08.341Z,77.28
2022-08-16T01:39:11.729Z,77.39
2022-08-16T01:40:08.396Z,77.28
2022-08-16T01:41:08.383Z,77.09
2022-08-16T01:42:12.940Z,77.19
2022-08-16T01:43:09.560Z,77.39
2022-08-16T01:44:08.261Z,77.39
2022-08-16T01:45:08.251Z,77.48
2022-08-16T01:46:30.010Z,77.39
2022-08-16T01:47:09.229Z,77.28
2022-08-16T01:48:19.369Z,77.39
2022-08-16T01:49:09.202Z,77.28
2022-08-16T01:50:42.656Z,77.09
2022-08-16T01:51:16.835Z,77.39
2022-08-16T01:52:09.161Z,77.48
2022-08-16T01:53:10.138Z,77.59
2022-08-16T01:54:08.129Z,77.48
2022-08-16T01:55:08.130Z,77.69
2022-08-16T01:56:08.109Z,77.59
2022-08-16T01:57:09.115Z,77.48
2022-08-16T01:58:08.082Z,77.59
2022-08-16T01:59:16.019Z,77.39
2022-08-16T02:00:10.507Z,77.48
2022-08-16T02:01:09.092Z,77.39
2022-08-16T02:02:26.634Z,77.28
2022-08-16T02:03:12.635Z,77.09
2022-08-16T02:04:10.942Z,76.98
2022-08-16T02:05:07.992Z,76.89
2022-08-16T02:06:08.085Z,77.19
2022-08-16T02:07:07.980Z,77.39
2022-08-16T02:08:07.958Z,77.28
2022-08-16T02:09:11.627Z,77.48
2022-08-16T02:10:07.918Z,77.69
2022-08-16T02:11:07.918Z,77.69
2022-08-16T02:12:43.583Z,77.69
2022-08-16T02:13:08.903Z,77.59
2022-08-16T02:14:07.860Z,77.59
2022-08-16T02:15:08.849Z,77.69
2022-08-16T02:16:07.859Z,77.59
2022-08-16T02:17:08.848Z,77.59
2022-08-16T02:18:07.822Z,77.48
2022-08-16T02:19:16.290Z,77.69
2022-08-16T02:20:08.816Z,77.79
2022-08-16T02:21:07.780Z,77.69
2022-08-16T02:22:33.478Z,77.48
2022-08-16T02:23:08.778Z,77.89
2022-08-16T02:24:31.345Z,77.79
2022-08-16T02:25:09.982Z,77.79
2022-08-16T02:26:07.726Z,77.89
2022-08-16T02:27:07.700Z,77.99
2022-08-16T02:28:07.698Z,77.89
2022-08-16T02:29:07.667Z,77.79
2022-08-16T02:30:08.665Z,77.59
2022-08-16T02:31:07.668Z,77.59
2022-08-16T02:32:50.324Z,77.99
2022-08-16T02:33:09.029Z,77.89
2022-08-16T02:34:07.608Z,77.79
2022-08-16T02:35:09.222Z,77.89
2022-08-16T02:36:07.590Z,77.69
2022-08-16T02:37:08.568Z,77.89
2022-08-16T02:38:08.999Z,77.69
2022-08-16T02:39:07.559Z,77.59
2022-08-16T02:40:07.538Z,77.79
2022-08-16T02:41:09.695Z,77.69
2022-08-16T02:42:07.497Z,77.69
2022-08-16T02:43:07.487Z,77.79
2022-08-16T02:44:07.497Z,77.59
2022-08-16T02:45:07.466Z,77.79
2022-08-16T02:46:07.841Z,77.69
2022-08-16T02:47:07.436Z,77.69
2022-08-16T02:48:28.478Z,77.69
2022-08-16T02:49:08.415Z,77.59
2022-08-16T02:50:54.052Z,77.69
2022-08-16T02:51:11.230Z,77.59
2022-08-16T02:52:09.113Z,77.59
2022-08-16T02:53:07.358Z,77.59
2022-08-16T02:54:07.357Z,77.69
2022-08-16T02:55:07.352Z,77.39
2022-08-16T02:56:09.933Z,77.39
2022-08-16T02:57:07.306Z,77.59
2022-08-16T02:58:07.296Z,77.28
2022-08-16T02:59:11.331Z,77.89
2022-08-16T03:00:34.240Z,77.83
2022-08-16T03:01:08.338Z,77.62
2022-08-16T03:02:08.885Z,77.59
2022-08-16T03:03:10.539Z,77.92
2022-08-16T03:04:49.569Z,77.92
2022-08-16T03:05:08.197Z,78.03
2022-08-16T03:06:42.285Z,78.03
2022-08-16T03:07:08.168Z,77.83
2022-08-16T03:08:07.165Z,77.92
2022-08-16T03:09:13.092Z,77.92
2022-08-16T03:10:08.135Z,78.03
2022-08-16T03:11:17.816Z,77.62
2022-08-16T03:12:08.123Z,77.02
2022-08-16T03:13:12.429Z,77.52
2022-08-16T03:14:08.434Z,77.83
2022-08-16T03:15:07.090Z,78.12
2022-08-16T03:16:07.059Z,78.33
2022-08-16T03:17:08.048Z,78.22
2022-08-16T03:18:12.547Z,78.56
2022-08-16T03:19:08.004Z,78.66
2022-08-16T03:20:07.032Z,78.77
2022-08-16T03:21:06.985Z,78.86
2022-08-16T03:22:06.975Z,79.27
2022-08-16T03:23:06.962Z,79.27
2022-08-16T03:24:28.533Z,79.47
2022-08-16T03:25:07.945Z,79.57
2022-08-16T03:26:06.934Z,79.71
2022-08-16T03:27:06.906Z,79.91
2022-08-16T03:28:07.601Z,79.91
2022-08-16T03:29:06.884Z,79.21
2022-08-16T03:30:16.396Z,79.30
2022-08-16T03:31:07.854Z,80.01
2022-08-16T03:32:06.848Z,80.11
2022-08-16T03:33:07.606Z,80.21
2022-08-16T03:34:06.824Z,79.91
2022-08-16T03:35:06.821Z,80.21
2022-08-16T03:36:30.237Z,80.65
2022-08-16T03:37:07.783Z,80.85
2022-08-16T03:38:33.764Z,80.85
2022-08-16T03:39:10.805Z,80.65
2022-08-16T03:40:07.827Z,80.85
2022-08-16T03:41:24.337Z,81.15
2022-08-16T03:42:07.723Z,81.26
2022-08-16T03:43:19.808Z,81.26
2022-08-16T03:44:07.685Z,81.15
2022-08-16T03:45:06.672Z,81.15
2022-08-16T03:46:06.673Z,81.29
2022-08-16T03:47:10.162Z,81.49
2022-08-16T03:48:07.207Z,81.70
2022-08-16T03:49:06.623Z,81.99
2022-08-16T03:50:25.687Z,82.20
2022-08-16T03:51:07.602Z,82.20
2022-08-16T03:52:06.584Z,82.30
2022-08-16T03:53:06.585Z,82.10
2022-08-16T03:54:12.291Z,82.10
2022-08-16T03:55:10.452Z,82.10
2022-08-16T03:56:07.737Z,82.40
2022-08-16T03:57:11.501Z,82.50
2022-08-16T03:58:07.513Z,82.64
2022-08-16T03:59:06.484Z,82.74
2022-08-16T04:00:06.481Z,82.74
2022-08-16T04:01:06.511Z,82.74
2022-08-16T04:02:12.639Z,82.44
2022-08-16T04:03:08.554Z,82.54
2022-08-16T04:04:06.430Z,82.44
2022-08-16T04:05:06.412Z,82.54
2022-08-16T04:06:06.403Z,82.44
2022-08-16T04:07:07.237Z,82.34
2022-08-16T04:08:23.356Z,82.44
2022-08-16T04:09:07.398Z,82.44
2022-08-16T04:10:35.839Z,81.93
2022-08-16T04:11:07.331Z,81.93
2022-08-16T04:12:11.191Z,82.24
2022-08-16T04:13:20.739Z,82.44
2022-08-16T04:14:30.928Z,82.64
2022-08-16T04:15:07.881Z,82.94
2022-08-16T04:16:06.606Z,83.04
2022-08-16T04:17:06.251Z,83.04
2022-08-16T04:18:06.259Z,83.04
2022-08-16T04:19:06.223Z,82.84
2022-08-16T04:20:11.076Z,82.84
2022-08-16T04:21:07.209Z,82.84
2022-08-16T04:22:08.522Z,82.94
2022-08-16T04:23:06.371Z,82.94
2022-08-16T04:24:07.836Z,82.84
2022-08-16T04:25:06.149Z,83.25
2022-08-16T04:26:06.139Z,83.14
2022-08-16T04:27:09.120Z,83.18
2022-08-16T04:28:29.167Z,83.08
2022-08-16T04:29:17.161Z,83.08
2022-08-16T04:30:10.779Z,82.78
2022-08-16T04:31:07.280Z,82.68
2022-08-16T04:32:06.069Z,82.78
2022-08-16T04:33:06.039Z,82.98
2022-08-16T04:34:06.041Z,83.39
2022-08-16T04:35:09.304Z,83.69
2022-08-16T04:36:07.001Z,83.89
2022-08-16T04:37:05.999Z,83.99
2022-08-16T04:38:11.030Z,84.19
2022-08-16T04:39:07.837Z,84.29
2022-08-16T04:40:06.019Z,84.29
2022-08-16T04:41:05.939Z,84.39
2022-08-16T04:42:11.444Z,84.39
2022-08-16T04:43:06.909Z,84.43
2022-08-16T04:44:30.970Z,84.53
2022-08-16T04:45:06.893Z,84.74
2022-08-16T04:46:05.868Z,85.03
2022-08-16T04:47:21.555Z,85.03
2022-08-16T04:48:06.849Z,84.83
2022-08-16T04:49:05.868Z,84.83
2022-08-16T04:50:05.835Z,84.74
2022-08-16T04:51:11.715Z,84.74
2022-08-16T04:52:06.807Z,84.63
2022-08-16T04:53:06.787Z,84.63
2022-08-16T04:54:05.805Z,84.74
2022-08-16T04:55:05.760Z,84.63
2022-08-16T04:56:05.749Z,84.23
2022-08-16T04:57:06.727Z,84.43
2022-08-16T04:58:45.325Z,84.33
2022-08-16T04:59:06.738Z,84.63
2022-08-16T05:00:31.659Z,84.53
2022-08-16T05:01:07.976Z,84.63
2022-08-16T05:02:42.564Z,84.39
2022-08-16T05:03:08.266Z,84.29
2022-08-16T05:04:05.657Z,84.29
2022-08-16T05:05:06.626Z,84.59
2022-08-16T05:06:09.267Z,84.39
2022-08-16T05:07:05.604Z,84.29
2022-08-16T05:08:27.949Z,84.19
2022-08-16T05:09:06.586Z,84.09
2022-08-16T05:10:05.558Z,84.19
2022-08-16T05:11:08.532Z,84.29
2022-08-16T05:12:05.548Z,84.19
2022-08-16T05:13:05.526Z,84.09
2022-08-16T05:14:06.852Z,84.19
2022-08-16T05:15:05.510Z,84.19
2022-08-16T05:16:06.130Z,84.19
2022-08-16T05:17:05.466Z,83.99
2022-08-16T05:18:05.466Z,83.89
2022-08-16T05:19:05.451Z,83.89
2022-08-16T05:20:38.551Z,83.89
2022-08-16T05:21:10.982Z,83.84
2022-08-16T05:22:06.417Z,83.75
2022-08-16T05:23:06.407Z,83.54
2022-08-16T05:24:06.007Z,83.54
2022-08-16T05:25:08.733Z,83.34
2022-08-16T05:26:05.356Z,83.54
2022-08-16T05:27:11.133Z,83.65
2022-08-16T05:28:06.338Z,83.65
2022-08-16T05:29:05.315Z,83.45
2022-08-16T05:30:34.089Z,83.34
2022-08-16T05:31:06.761Z,83.45
2022-08-16T05:32:05.276Z,83.54
2022-08-16T05:33:06.267Z,83.34
2022-08-16T05:34:05.265Z,83.34
2022-08-16T05:35:06.247Z,83.45
2022-08-16T05:36:05.235Z,83.34
2022-08-16T05:37:06.235Z,83.20
2022-08-16T05:38:05.205Z,83.00
2022-08-16T05:39:06.199Z,83.00
2022-08-16T05:40:06.155Z,82.80
2022-08-16T05:41:05.163Z,82.70
2022-08-16T05:42:05.146Z,82.80
2022-08-16T05:43:05.134Z,82.90
2022-08-16T05:44:05.320Z,82.80
2022-08-16T05:45:06.965Z,82.50
2022-08-16T05:46:05.113Z,82.50
2022-08-16T05:47:06.085Z,82.30
2022-08-16T05:48:05.072Z,81.96
2022-08-16T05:49:08.534Z,82.06
2022-08-16T05:50:05.044Z,81.96
2022-08-16T05:51:05.044Z,81.65
2022-08-16T05:52:05.022Z,81.46
2022-08-16T05:53:06.010Z,81.35
2022-08-16T05:54:04.994Z,81.46
2022-08-16T05:55:04.973Z,81.56
2022-08-16T05:56:04.976Z,81.12
2022-08-16T05:57:04.947Z,81.01
2022-08-16T05:58:04.971Z,81.01
2022-08-16T05:59:06.358Z,80.91
2022-08-16T06:00:09.138Z,80.81
2022-08-16T06:01:04.932Z,80.61
2022-08-16T06:02:06.145Z,80.21
2022-08-16T06:03:04.871Z,80.07
2022-08-16T06:04:13.786Z,80.07
2022-08-16T06:05:05.842Z,79.67
2022-08-16T06:06:05.833Z,79.67
2022-08-16T06:07:07.135Z,79.77
2022-08-16T06:08:04.812Z,79.67
2022-08-16T06:09:04.783Z,79.17
2022-08-16T06:10:04.790Z,79.23
2022-08-16T06:11:10.209Z,79.23
2022-08-16T06:12:05.764Z,79.03
2022-08-16T06:13:04.742Z,79.03
2022-08-16T06:14:04.731Z,78.93
2022-08-16T06:15:09.761Z,78.73
2022-08-16T06:16:05.702Z,78.93
2022-08-16T06:17:05.515Z,78.79
2022-08-16T06:18:04.681Z,78.59
2022-08-16T06:19:05.079Z,78.79
2022-08-16T06:20:04.790Z,78.89
2022-08-16T06:21:04.632Z,78.99
2022-08-16T06:22:04.630Z,79.19
2022-08-16T06:23:11.562Z,79.19
2022-08-16T06:24:55.093Z,78.89
2022-08-16T06:25:05.598Z,77.75
2022-08-16T06:26:07.381Z,77.35
2022-08-16T06:27:04.554Z,77.05
2022-08-16T06:28:08.631Z,77.15
2022-08-16T06:29:04.543Z,77.21
2022-08-16T06:30:04.511Z,77.41
2022-08-16T06:31:04.682Z,77.21
2022-08-16T06:32:04.574Z,77.21
2022-08-16T06:33:04.490Z,76.81
2022-08-16T06:34:04.468Z,76.61
2022-08-16T06:35:05.451Z,76.37
2022-08-16T06:36:04.442Z,76.07
2022-08-16T06:37:04.430Z,75.27
2022-08-16T06:38:04.420Z,75.27
2022-08-16T06:39:06.148Z,75.27
2022-08-16T06:40:04.457Z,75.07
2022-08-16T06:41:04.373Z,75.04
2022-08-16T06:42:04.359Z,75.34
2022-08-16T06:43:04.605Z,75.13
2022-08-16T06:44:04.341Z,75.23
2022-08-16T06:45:04.332Z,74.84
2022-08-16T06:46:04.309Z,74.63
2022-08-16T06:47:04.293Z,74.54
2022-08-16T06:48:04.278Z,74.70
2022-08-16T06:49:05.517Z,74.70
2022-08-16T06:50:04.249Z,74.40
2022-08-16T06:51:04.239Z,74.10
2022-08-16T06:52:04.219Z,74.10
2022-08-16T06:53:08.532Z,73.86
2022-08-16T06:54:05.218Z,73.66
2022-08-16T06:55:04.186Z,73.46
2022-08-16T06:56:04.208Z,73.16
2022-08-16T06:57:04.159Z,73.96
2022-08-16T06:58:08.536Z,73.13
2022-08-16T06:59:05.138Z,72.92
2022-08-16T07:00:04.129Z,72.92
2022-08-16T07:01:09.973Z,72.92
2022-08-16T07:02:05.119Z,72.53
2022-08-16T07:03:27.838Z,72.59
2022-08-16T07:04:05.069Z,72.09
2022-08-16T07:05:15.033Z,72.69
2022-08-16T07:06:05.047Z,71.79
2022-08-16T07:07:04.036Z,71.99
2022-08-16T07:08:04.021Z,71.96
2022-08-16T07:09:09.788Z,71.96
2022-08-16T07:10:09.188Z,71.36
2022-08-16T07:11:03.992Z,71.26
2022-08-16T07:12:05.633Z,70.72
2022-08-16T07:13:04.723Z,70.72
2022-08-16T07:14:24.316Z,70.53
2022-08-16T07:15:04.940Z,70.72
2022-08-16T07:16:03.926Z,70.79
2022-08-16T07:17:08.260Z,71.39
2022-08-16T07:18:04.877Z,70.09
2022-08-16T07:19:03.869Z,70.29
2022-08-16T07:20:34.924Z,69.96
2022-08-16T07:21:04.855Z,69.36
2022-08-16T07:22:03.878Z,68.76
2022-08-16T07:23:13.260Z,70.03
2022-08-16T07:24:05.824Z,69.02
2022-08-16T07:25:03.807Z,68.83
2022-08-16T07:26:03.798Z,68.60
2022-08-16T07:27:03.784Z,68.00
2022-08-16T07:28:03.757Z,67.70
2022-08-16T07:29:03.760Z,67.27
2022-08-16T07:30:04.717Z,67.66
2022-08-16T07:31:04.727Z,67.86
2022-08-16T07:32:03.706Z,67.77
2022-08-16T07:33:03.718Z,66.74
2022-08-16T07:34:03.676Z,66.64
2022-08-16T07:35:04.669Z,67.63
2022-08-16T07:36:03.665Z,66.71
2022-08-16T07:37:03.645Z,66.31
2022-08-16T07:38:03.667Z,65.51
2022-08-16T07:39:03.619Z,64.91
2022-08-16T07:40:11.387Z,65.61
2022-08-16T07:41:09.774Z,65.28
2022-08-16T07:42:07.014Z,65.48
2022-08-16T07:43:03.558Z,64.48
2022-08-16T07:44:03.544Z,64.69
2022-08-16T07:45:07.578Z,64.09
2022-08-16T07:46:04.569Z,64.39
2022-08-16T07:47:03.516Z,63.49
2022-08-16T07:48:11.493Z,64.48
2022-08-16T07:49:04.486Z,64.39
2022-08-16T07:50:05.565Z,64.88
2022-08-16T07:51:08.873Z,64.48
2022-08-16T07:52:20.157Z,64.65
2022-08-16T07:53:04.426Z,64.75
2022-08-16T07:54:09.485Z,63.53
2022-08-16T07:55:04.414Z,63.82
2022-08-16T07:56:04.438Z,64.29
2022-08-16T07:57:03.384Z,62.90
2022-08-16T07:58:03.546Z,62.01
2022-08-16T07:59:03.365Z,62.21
2022-08-16T08:00:03.332Z,61.98
2022-08-16T08:01:03.360Z,63.07
2022-08-16T08:02:03.306Z,62.67
2022-08-16T08:03:03.304Z,61.75
2022-08-16T08:04:03.380Z,61.55
2022-08-16T08:05:03.439Z,62.15
2022-08-16T08:06:03.273Z,61.02
2022-08-16T08:07:03.869Z,60.83
2022-08-16T08:08:12.011Z,60.93
2022-08-16T08:09:04.214Z,59.74
2022-08-16T08:10:03.912Z,60.30
2022-08-16T08:11:09.207Z,60.10
2022-08-16T08:12:05.329Z,59.61
2022-08-16T08:13:03.165Z,60.27
2022-08-16T08:14:06.795Z,59.88
2022-08-16T08:15:04.118Z,59.88
2022-08-16T08:16:03.143Z,58.48
2022-08-16T08:17:03.119Z,59.05
2022-08-16T08:18:29.381Z,58.86
2022-08-16T08:19:04.144Z,59.15
2022-08-16T08:20:03.086Z,58.65
2022-08-16T08:21:03.086Z,58.75
2022-08-16T08:22:03.045Z,57.97
2022-08-16T08:23:03.043Z,57.37
2022-08-16T08:24:03.041Z,57.93
2022-08-16T08:25:04.038Z,58.13
2022-08-16T08:26:05.278Z,56.95
2022-08-16T08:27:04.346Z,57.24
2022-08-16T08:28:02.973Z,56.95
2022-08-16T08:29:02.963Z,58.01
2022-08-16T08:30:49.995Z,56.92
2022-08-16T08:31:04.042Z,58.01
2022-08-16T08:32:03.012Z,57.41
2022-08-16T08:33:04.288Z,56.59
2022-08-16T08:34:04.912Z,56.89
2022-08-16T08:35:03.913Z,56.96
2022-08-16T08:36:02.884Z,56.27
2022-08-16T08:37:02.853Z,55.75
2022-08-16T08:38:02.843Z,55.94
2022-08-16T08:39:02.824Z,56.34
2022-08-16T08:40:03.835Z,55.65
2022-08-16T08:41:02.813Z,54.93
2022-08-16T08:42:03.696Z,54.53
2022-08-16T08:43:12.646Z,54.31
2022-08-16T08:44:28.536Z,53.81
2022-08-16T08:45:03.753Z,52.53
2022-08-16T08:46:02.744Z,52.53
2022-08-16T08:47:07.913Z,52.31
2022-08-16T08:48:03.718Z,52.61
2022-08-16T08:49:02.701Z,52.80
2022-08-16T08:50:02.704Z,51.32
2022-08-16T08:51:02.863Z,52.01
2022-08-16T08:52:02.670Z,52.01
2022-08-16T08:53:03.646Z,52.31
2022-08-16T08:54:02.643Z,53.00
2022-08-16T08:55:02.623Z,51.89
2022-08-16T08:56:23.329Z,52.48
2022-08-16T08:57:03.601Z,51.10
2022-08-16T08:58:02.593Z,50.51
2022-08-16T08:59:12.780Z,52.28
2022-08-16T09:00:03.573Z,52.26
2022-08-16T09:01:03.554Z,49.99
2022-08-16T09:02:03.230Z,51.54
2022-08-16T09:03:04.570Z,51.23
2022-08-16T09:04:03.617Z,50.34
2022-08-16T09:05:02.496Z,49.82
2022-08-16T09:06:03.503Z,48.94
2022-08-16T09:07:02.473Z,49.04
2022-08-16T09:08:06.072Z,50.02
2022-08-16T09:09:02.453Z,48.42
2022-08-16T09:10:20.482Z,47.73
2022-08-16T09:11:03.422Z,49.80
2022-08-16T09:12:06.541Z,48.82
2022-08-16T09:13:02.393Z,48.52
2022-08-16T09:14:02.393Z,49.70
2022-08-16T09:15:02.367Z,48.71
2022-08-16T09:16:02.617Z,47.31
2022-08-16T09:17:11.694Z,48.03
2022-08-16T09:18:27.009Z,47.92
2022-08-16T09:19:04.024Z,47.83
2022-08-16T09:20:04.890Z,48.42
2022-08-16T09:21:02.295Z,48.91
2022-08-16T09:22:02.286Z,48.13
2022-08-16T09:23:02.264Z,47.73
2022-08-16T09:24:02.255Z,49.48
2022-08-16T09:25:11.482Z,48.00
2022-08-16T09:26:03.233Z,47.91
2022-08-16T09:27:03.203Z,47.39
2022-08-16T09:28:09.482Z,47.29
2022-08-16T09:29:16.744Z,46.90
2022-08-16T09:30:33.711Z,46.97
2022-08-16T09:31:03.174Z,46.58
2022-08-16T09:32:02.163Z,46.68
2022-08-16T09:33:03.136Z,47.17
2022-08-16T09:34:02.137Z,46.88
2022-08-16T09:35:02.115Z,48.65
2022-08-16T09:36:02.108Z,48.25
2022-08-16T09:37:02.083Z,47.56
2022-08-16T09:38:02.074Z,45.89
2022-08-16T09:39:02.132Z,45.18
2022-08-16T09:40:02.098Z,45.57
2022-08-16T09:41:02.139Z,45.38
2022-08-16T09:42:02.033Z,46.26
2022-08-16T09:43:02.177Z,46.24
2022-08-16T09:44:02.513Z,46.51
2022-08-16T09:45:11.740Z,45.63
2022-08-16T09:46:02.989Z,45.51
2022-08-16T09:47:01.955Z,44.23
2022-08-16T09:48:02.947Z,45.41
2022-08-16T09:49:03.657Z,46.10
2022-08-16T09:50:01.920Z,45.29
2022-08-16T09:51:01.942Z,45.00
2022-08-16T09:52:01.893Z,43.70
2022-08-16T09:53:01.895Z,42.82
2022-08-16T09:54:01.875Z,45.47
2022-08-16T09:55:01.860Z,43.58
2022-08-16T09:56:01.858Z,43.12
2022-08-16T09:57:01.843Z,44.58
2022-08-16T09:58:01.830Z,43.09
2022-08-16T09:59:03.326Z,42.90
2022-08-16T10:00:01.802Z,43.77
2022-08-16T10:01:01.795Z,43.21
2022-08-16T10:02:26.087Z,43.12
2022-08-16T10:03:02.771Z,43.38
2022-08-16T10:04:04.594Z,44.37
2022-08-16T10:05:01.896Z,42.80
2022-08-16T10:06:01.844Z,42.21
2022-08-16T10:07:02.050Z,42.72
2022-08-16T10:08:26.426Z,42.80
2022-08-16T10:09:06.226Z,41.92
2022-08-16T10:10:02.736Z,41.92
2022-08-16T10:11:02.460Z,43.88
2022-08-16T10:12:11.308Z,42.50
2022-08-16T10:13:02.955Z,42.88
2022-08-16T10:14:01.614Z,42.29
2022-08-16T10:15:02.091Z,42.78
2022-08-16T10:16:01.665Z,42.38
2022-08-16T10:17:02.271Z,41.21
2022-08-16T10:18:41.044Z,41.70
2022-08-16T10:19:07.195Z,41.21
2022-08-16T10:20:02.534Z,42.97
2022-08-16T10:21:01.564Z,43.07
2022-08-16T10:22:05.259Z,41.11
2022-08-16T10:23:06.806Z,40.41
2022-08-16T10:24:02.487Z,41.68
2022-08-16T10:25:01.476Z,41.60
2022-08-16T10:27:17.133Z,42.17
2022-08-16T10:27:25.283Z,39.53
2022-08-16T10:28:27.983Z,42.07
2022-08-16T10:29:04.788Z,40.88
2022-08-16T10:30:07.248Z,41.96
2022-08-16T10:31:03.497Z,42.32
2022-08-16T10:32:01.397Z,41.93
2022-08-16T10:33:01.375Z,40.66
2022-08-16T10:34:01.366Z,39.88
2022-08-16T10:35:01.996Z,41.35
2022-08-16T10:36:03.818Z,40.19
2022-08-16T10:37:02.107Z,40.60
2022-08-16T10:38:01.306Z,41.02
2022-08-16T10:39:01.295Z,42.58
2022-08-16T10:40:01.304Z,41.00
2022-08-16T10:41:01.284Z,42.85
2022-08-16T10:42:01.265Z,41.27
2022-08-16T10:43:01.245Z,39.88
2022-08-16T10:44:01.244Z,40.94
2022-08-16T10:45:01.232Z,39.86
2022-08-16T10:46:01.486Z,41.70
2022-08-16T10:47:02.340Z,40.99
2022-08-16T10:48:03.309Z,40.60
2022-08-16T10:49:01.234Z,38.75
2022-08-16T10:50:01.155Z,39.23
2022-08-16T10:51:01.164Z,39.04
2022-08-16T10:52:17.825Z,39.06
2022-08-16T10:53:05.834Z,39.69
2022-08-16T10:54:02.107Z,40.86
2022-08-16T10:56:02.636Z,40.08
2022-08-16T10:57:01.095Z,39.69
2022-08-16T10:58:01.061Z,39.80
2022-08-16T11:00:02.027Z,39.80
2022-08-16T11:01:24.877Z,40.48
2022-08-16T11:03:02.064Z,40.25
2022-08-16T11:04:01.725Z,39.45
2022-08-16T11:05:06.254Z,38.57
2022-08-16T11:06:05.953Z,38.57
2022-08-16T11:07:08.763Z,38.96
2022-08-16T11:08:05.387Z,39.45
2022-08-16T11:11:06.283Z,38.67
2022-08-16T11:12:14.283Z,38.59
2022-08-16T11:14:10.682Z,39.10
2022-08-16T11:15:18.036Z,39.29
2022-08-16T11:16:25.357Z,38.81
2022-08-16T11:17:02.954Z,39.02
2022-08-16T11:19:05.835Z,40.17
2022-08-16T11:20:41.087Z,40.68
2022-08-16T11:21:01.788Z,40.95
2022-08-16T11:22:38.658Z,40.95
2022-08-16T11:23:01.753Z,41.13
2022-08-16T11:24:00.734Z,40.14
2022-08-16T11:26:03.826Z,40.11
2022-08-16T11:26:16.257Z,41.07
2022-08-16T11:28:01.687Z,39.47
2022-08-16T11:29:16.008Z,37.40
2022-08-16T11:30:01.669Z,38.16
2022-08-16T11:31:00.765Z,39.43
2022-08-16T11:32:00.639Z,38.14
2022-08-16T11:33:00.618Z,37.54
2022-08-16T11:34:00.607Z,35.28
2022-08-16T11:35:10.273Z,36.25
2022-08-16T11:37:01.577Z,34.11
2022-08-16T11:38:47.441Z,34.11
2022-08-16T11:39:02.037Z,33.93
2022-08-16T11:40:00.566Z,33.53
2022-08-16T11:41:00.539Z,35.08
2022-08-16T11:42:00.508Z,34.59
2022-08-16T11:43:00.498Z,35.67
2022-08-16T11:44:00.486Z,34.21
2022-08-16T11:45:00.469Z,34.97
2022-08-16T11:46:34.136Z,34.78
2022-08-16T11:47:01.539Z,34.39
2022-08-16T11:48:00.426Z,36.51
2022-08-16T11:49:00.428Z,34.37
2022-08-16T11:50:00.417Z,33.70
2022-08-16T11:51:00.415Z,34.89
2022-08-16T11:52:00.386Z,35.67
2022-08-16T11:53:00.367Z,37.02
2022-08-16T11:54:00.359Z,36.71
2022-08-16T11:55:00.560Z,34.16
2022-08-16T11:56:00.345Z,33.07
2022-08-16T11:57:00.331Z,33.18
2022-08-16T11:58:00.473Z,35.25
2022-08-16T11:59:00.307Z,35.05
2022-08-16T12:00:00.287Z,33.51
2022-08-16T12:01:00.296Z,33.44
2022-08-16T12:02:31.399Z,34.26
2022-08-16T12:03:01.267Z,34.65
2022-08-16T12:04:00.268Z,35.72
2022-08-16T12:05:01.044Z,34.36
2022-08-16T12:06:00.220Z,34.65
2022-08-16T12:07:00.199Z,35.25
2022-08-16T12:08:00.179Z,34.84
2022-08-16T12:09:02.189Z,36.02
2022-08-16T12:10:00.159Z,34.71
2022-08-16T12:11:02.396Z,34.32
2022-08-16T12:12:03.184Z,36.18
2022-08-16T12:13:02.767Z,36.45
2022-08-16T12:14:00.111Z,33.80
2022-08-16T12:15:00.572Z,34.09
2022-08-16T12:16:00.113Z,34.19
2022-08-16T12:17:00.089Z,34.58
2022-08-16T12:18:00.060Z,35.05
2022-08-16T12:19:00.048Z,35.91
2022-08-16T12:20:00.111Z,34.33
2022-08-16T12:21:00.062Z,32.37
2022-08-16T12:22:00.053Z,32.39
2022-08-16T12:23:00.004Z,34.82
2022-08-16T12:24:00.001Z,34.63
2022-08-16T12:24:59.969Z,32.96
2022-08-16T12:25:59.970Z,32.18
2022-08-16T12:27:00.158Z,31.98
2022-08-16T12:27:59.952Z,31.98
2022-08-16T12:28:59.930Z,32.59
2022-08-16T12:29:59.909Z,33.58
2022-08-16T12:30:59.932Z,32.62
2022-08-16T12:32:26.520Z,34.58
2022-08-16T12:33:00.880Z,33.11
2022-08-16T12:33:59.890Z,33.59
2022-08-16T12:34:59.849Z,33.59
2022-08-16T12:35:59.860Z,33.59
2022-08-16T12:36:59.830Z,33.12
2022-08-16T12:37:59.828Z,33.33
2022-08-16T12:38:59.799Z,34.89
2022-08-16T12:39:59.883Z,34.89
2022-08-16T12:40:59.819Z,34.78
2022-08-16T12:41:59.771Z,33.31
2022-08-16T12:43:00.720Z,34.01
2022-08-16T12:44:01.306Z,34.59
2022-08-16T12:44:59.741Z,34.11
2022-08-16T12:45:59.739Z,35.75
2022-08-16T12:46:59.709Z,34.78
2022-08-16T12:48:31.638Z,34.56
2022-08-16T12:49:00.683Z,35.03
2022-08-16T12:49:59.695Z,33.46
2022-08-16T12:51:01.221Z,32.00
2022-08-16T12:52:01.439Z,32.60
2022-08-16T12:52:59.630Z,34.09
2022-08-16T12:53:59.612Z,34.17
2022-08-16T12:54:59.610Z,33.18
2022-08-16T12:55:59.618Z,32.89
2022-08-16T12:56:59.591Z,31.93
2022-08-16T12:58:00.472Z,32.34
2022-08-16T12:58:59.563Z,34.00
2022-08-16T12:59:59.551Z,33.02
2022-08-16T13:00:59.579Z,34.47